sensor_id;sensor_type;location;lat;lon;timestamp;P1;durP1;ratioP1;P2;durP2;ratioP2
65636;SDS011;52327;42.622;23.316;2023-02-04T00:01:04;4.97;;;3.33;;
65636;SDS011;52327;42.622;23.316;2023-02-04T00:03:30;6.03;;;3.60;;
65636;SDS011;52327;42.622;23.316;2023-02-04T00:05:58;4.63;;;2.58;;
65636;SDS011;52327;42.622;23.316;2023-02-04T00:08:29;4.32;;;2.58;;
65636;SDS011;52327;42.622;23.316;2023-02-04T00:10:57;2.80;;;1.55;;
65636;SDS011;52327;42.622;23.316;2023-02-04T00:13:31;2.58;;;2.03;;
65636;SDS011;52327;42.622;23.316;2023-02-04T00:15:57;6.75;;;3.03;;
65636;SDS011;52327;42.622;23.316;2023-02-04T00:18:22;3.03;;;2.20;;
65636;SDS011;52327;42.622;23.316;2023-02-04T00:20:48;4.60;;;2.22;;
65636;SDS011;52327;42.622;23.316;2023-02-04T00:23:13;4.30;;;3.08;;
65636;SDS011;52327;42.622;23.316;2023-02-04T00:25:39;8.63;;;3.53;;
65636;SDS011;52327;42.622;23.316;2023-02-04T00:28:04;6.05;;;2.53;;
65636;SDS011;52327;42.622;23.316;2023-02-04T00:30:30;7.07;;;3.00;;
65636;SDS011;52327;42.622;23.316;2023-02-04T00:32:56;5.68;;;2.65;;
65636;SDS011;52327;42.622;23.316;2023-02-04T00:35:22;4.13;;;2.72;;
65636;SDS011;52327;42.622;23.316;2023-02-04T00:37:47;6.72;;;3.00;;
65636;SDS011;52327;42.622;23.316;2023-02-04T00:40:13;5.20;;;2.92;;
65636;SDS011;52327;42.622;23.316;2023-02-04T00:42:39;5.50;;;3.10;;
65636;SDS011;52327;42.622;23.316;2023-02-04T00:45:04;5.78;;;2.53;;
65636;SDS011;52327;42.622;23.316;2023-02-04T00:47:30;3.88;;;2.40;;
65636;SDS011;52327;42.622;23.316;2023-02-04T00:49:55;3.00;;;2.15;;
65636;SDS011;52327;42.622;23.316;2023-02-04T00:52:21;3.13;;;2.78;;
65636;SDS011;52327;42.622;23.316;2023-02-04T00:54:46;6.72;;;3.97;;
65636;SDS011;52327;42.622;23.316;2023-02-04T00:57:12;10.60;;;3.63;;
65636;SDS011;52327;42.622;23.316;2023-02-04T00:59:37;3.40;;;1.90;;
65636;SDS011;52327;42.622;23.316;2023-02-04T01:02:03;4.18;;;2.20;;
65636;SDS011;52327;42.622;23.316;2023-02-04T01:04:28;5.95;;;3.38;;
65636;SDS011;52327;42.622;23.316;2023-02-04T01:06:54;6.72;;;2.47;;
65636;SDS011;52327;42.622;23.316;2023-02-04T01:09:19;3.60;;;2.17;;
65636;SDS011;52327;42.622;23.316;2023-02-04T01:11:49;5.78;;;3.78;;
65636;SDS011;52327;42.622;23.316;2023-02-04T01:14:15;7.53;;;3.45;;
65636;SDS011;52327;42.622;23.316;2023-02-04T01:16:40;4.43;;;2.53;;
65636;SDS011;52327;42.622;23.316;2023-02-04T01:19:06;5.35;;;3.47;;
65636;SDS011;52327;42.622;23.316;2023-02-04T01:24:44;5.18;;;2.13;;
65636;SDS011;52327;42.622;23.316;2023-02-04T01:27:09;3.78;;;2.13;;
65636;SDS011;52327;42.622;23.316;2023-02-04T01:29:35;6.50;;;3.20;;
65636;SDS011;52327;42.622;23.316;2023-02-04T01:32:00;3.72;;;2.63;;
65636;SDS011;52327;42.622;23.316;2023-02-04T01:34:25;4.45;;;2.38;;
65636;SDS011;52327;42.622;23.316;2023-02-04T01:36:51;4.78;;;2.17;;
65636;SDS011;52327;42.622;23.316;2023-02-04T01:39:16;2.35;;;2.15;;
65636;SDS011;52327;42.622;23.316;2023-02-04T01:41:42;4.63;;;2.60;;
65636;SDS011;52327;42.622;23.316;2023-02-04T01:44:08;5.68;;;2.22;;
65636;SDS011;52327;42.622;23.316;2023-02-04T01:46:33;3.42;;;2.03;;
65636;SDS011;52327;42.622;23.316;2023-02-04T01:49:01;3.53;;;2.33;;
65636;SDS011;52327;42.622;23.316;2023-02-04T01:51:28;6.28;;;2.00;;
65636;SDS011;52327;42.622;23.316;2023-02-04T01:53:56;3.28;;;2.50;;
65636;SDS011;52327;42.622;23.316;2023-02-04T01:56:23;3.95;;;2.55;;
65636;SDS011;52327;42.622;23.316;2023-02-04T01:58:53;4.28;;;2.78;;
65636;SDS011;52327;42.622;23.316;2023-02-04T02:01:36;3.03;;;2.70;;
65636;SDS011;52327;42.622;23.316;2023-02-04T02:04:08;2.78;;;2.47;;
65636;SDS011;52327;42.622;23.316;2023-02-04T02:06:35;1.42;;;1.23;;
65636;SDS011;52327;42.622;23.316;2023-02-04T02:09:02;3.35;;;2.03;;
65636;SDS011;52327;42.622;23.316;2023-02-04T02:11:27;3.40;;;2.72;;
65636;SDS011;52327;42.622;23.316;2023-02-04T02:13:53;3.35;;;3.08;;
65636;SDS011;52327;42.622;23.316;2023-02-04T02:16:19;5.28;;;2.47;;
65636;SDS011;52327;42.622;23.316;2023-02-04T02:18:45;3.38;;;1.73;;
65636;SDS011;52327;42.622;23.316;2023-02-04T02:21:11;6.78;;;3.05;;
65636;SDS011;52327;42.622;23.316;2023-02-04T02:26:25;3.38;;;1.80;;
65636;SDS011;52327;42.622;23.316;2023-02-04T02:28:52;2.92;;;2.03;;
65636;SDS011;52327;42.622;23.316;2023-02-04T02:31:19;1.63;;;1.33;;
65636;SDS011;52327;42.622;23.316;2023-02-04T02:33:46;1.48;;;1.30;;
65636;SDS011;52327;42.622;23.316;2023-02-04T02:36:12;3.53;;;2.60;;
65636;SDS011;52327;42.622;23.316;2023-02-04T02:38:40;5.13;;;2.42;;
65636;SDS011;52327;42.622;23.316;2023-02-04T02:41:06;2.30;;;2.08;;
65636;SDS011;52327;42.622;23.316;2023-02-04T02:43:34;2.67;;;2.25;;
65636;SDS011;52327;42.622;23.316;2023-02-04T02:46:00;2.40;;;2.20;;
65636;SDS011;52327;42.622;23.316;2023-02-04T02:48:26;4.65;;;2.40;;
65636;SDS011;52327;42.622;23.316;2023-02-04T02:50:52;3.85;;;2.20;;
65636;SDS011;52327;42.622;23.316;2023-02-04T02:53:18;6.03;;;1.88;;
65636;SDS011;52327;42.622;23.316;2023-02-04T02:55:44;5.25;;;2.17;;
65636;SDS011;52327;42.622;23.316;2023-02-04T02:58:32;3.17;;;1.55;;
65636;SDS011;52327;42.622;23.316;2023-02-04T03:01:02;3.10;;;2.47;;
65636;SDS011;52327;42.622;23.316;2023-02-04T03:03:33;2.95;;;2.33;;
65636;SDS011;52327;42.622;23.316;2023-02-04T03:06:05;5.15;;;2.40;;
65636;SDS011;52327;42.622;23.316;2023-02-04T03:08:34;3.00;;;1.85;;
65636;SDS011;52327;42.622;23.316;2023-02-04T03:11:00;3.40;;;2.78;;
65636;SDS011;52327;42.622;23.316;2023-02-04T03:13:26;2.58;;;1.30;;
65636;SDS011;52327;42.622;23.316;2023-02-04T03:15:52;5.28;;;2.83;;
65636;SDS011;52327;42.622;23.316;2023-02-04T03:18:18;4.80;;;1.83;;
65636;SDS011;52327;42.622;23.316;2023-02-04T03:20:44;4.72;;;2.63;;
65636;SDS011;52327;42.622;23.316;2023-02-04T03:23:10;4.55;;;1.52;;
65636;SDS011;52327;42.622;23.316;2023-02-04T03:25:36;6.03;;;3.65;;
65636;SDS011;52327;42.622;23.316;2023-02-04T03:28:03;4.95;;;2.83;;
65636;SDS011;52327;42.622;23.316;2023-02-04T03:30:29;3.13;;;2.00;;
65636;SDS011;52327;42.622;23.316;2023-02-04T03:32:57;2.47;;;1.95;;
65636;SDS011;52327;42.622;23.316;2023-02-04T03:35:23;3.40;;;3.00;;
65636;SDS011;52327;42.622;23.316;2023-02-04T03:37:48;3.83;;;2.15;;
65636;SDS011;52327;42.622;23.316;2023-02-04T03:40:14;1.67;;;1.58;;
65636;SDS011;52327;42.622;23.316;2023-02-04T03:42:40;2.25;;;2.05;;
65636;SDS011;52327;42.622;23.316;2023-02-04T03:45:05;1.67;;;1.35;;
65636;SDS011;52327;42.622;23.316;2023-02-04T03:47:31;5.68;;;2.33;;
65636;SDS011;52327;42.622;23.316;2023-02-04T03:49:56;3.25;;;1.90;;
65636;SDS011;52327;42.622;23.316;2023-02-04T03:52:22;2.00;;;1.38;;
65636;SDS011;52327;42.622;23.316;2023-02-04T03:54:47;2.53;;;2.15;;
65636;SDS011;52327;42.622;23.316;2023-02-04T03:57:13;3.33;;;2.33;;
65636;SDS011;52327;42.622;23.316;2023-02-04T03:59:40;2.22;;;1.40;;
65636;SDS011;52327;42.622;23.316;2023-02-04T04:02:05;0.63;;;0.63;;
65636;SDS011;52327;42.622;23.316;2023-02-04T04:04:31;0.50;;;0.47;;
65636;SDS011;52327;42.622;23.316;2023-02-04T04:06:56;1.15;;;0.70;;
65636;SDS011;52327;42.622;23.316;2023-02-04T04:09:22;0.47;;;0.47;;
65636;SDS011;52327;42.622;23.316;2023-02-04T04:11:47;1.77;;;1.23;;
65636;SDS011;52327;42.622;23.316;2023-02-04T04:14:13;1.10;;;0.60;;
65636;SDS011;52327;42.622;23.316;2023-02-04T04:16:38;0.52;;;0.52;;
65636;SDS011;52327;42.622;23.316;2023-02-04T04:19:04;1.27;;;0.65;;
65636;SDS011;52327;42.622;23.316;2023-02-04T04:21:29;0.73;;;0.70;;
65636;SDS011;52327;42.622;23.316;2023-02-04T04:23:54;1.40;;;0.95;;
65636;SDS011;52327;42.622;23.316;2023-02-04T04:26:20;1.20;;;1.10;;
65636;SDS011;52327;42.622;23.316;2023-02-04T04:28:45;0.32;;;0.32;;
65636;SDS011;52327;42.622;23.316;2023-02-04T04:31:11;1.75;;;1.10;;
65636;SDS011;52327;42.622;23.316;2023-02-04T04:33:36;0.40;;;0.40;;
65636;SDS011;52327;42.622;23.316;2023-02-04T04:36:03;0.50;;;0.40;;
65636;SDS011;52327;42.622;23.316;2023-02-04T04:38:28;1.13;;;0.70;;
65636;SDS011;52327;42.622;23.316;2023-02-04T04:40:54;0.30;;;0.30;;
65636;SDS011;52327;42.622;23.316;2023-02-04T04:43:19;0.30;;;0.30;;
65636;SDS011;52327;42.622;23.316;2023-02-04T04:45:45;0.40;;;0.40;;
65636;SDS011;52327;42.622;23.316;2023-02-04T04:48:10;0.52;;;0.52;;
65636;SDS011;52327;42.622;23.316;2023-02-04T04:50:36;2.08;;;0.82;;
65636;SDS011;52327;42.622;23.316;2023-02-04T04:53:01;0.60;;;0.60;;
65636;SDS011;52327;42.622;23.316;2023-02-04T04:55:26;0.35;;;0.35;;
65636;SDS011;52327;42.622;23.316;2023-02-04T04:57:52;0.40;;;0.40;;
65636;SDS011;52327;42.622;23.316;2023-02-04T05:00:18;0.43;;;0.38;;
65636;SDS011;52327;42.622;23.316;2023-02-04T05:02:45;0.60;;;0.50;;
65636;SDS011;52327;42.622;23.316;2023-02-04T05:05:10;0.40;;;0.40;;
65636;SDS011;52327;42.622;23.316;2023-02-04T05:07:36;0.20;;;0.20;;
65636;SDS011;52327;42.622;23.316;2023-02-04T05:10:02;0.40;;;0.40;;
65636;SDS011;52327;42.622;23.316;2023-02-04T05:12:28;0.32;;;0.30;;
65636;SDS011;52327;42.622;23.316;2023-02-04T05:14:54;0.13;;;0.13;;
65636;SDS011;52327;42.622;23.316;2023-02-04T05:17:19;0.20;;;0.20;;
65636;SDS011;52327;42.622;23.316;2023-02-04T05:19:44;0.30;;;0.30;;
65636;SDS011;52327;42.622;23.316;2023-02-04T05:22:10;0.32;;;0.32;;
65636;SDS011;52327;42.622;23.316;2023-02-04T05:24:35;0.20;;;0.20;;
65636;SDS011;52327;42.622;23.316;2023-02-04T05:27:01;0.30;;;0.30;;
65636;SDS011;52327;42.622;23.316;2023-02-04T05:29:26;0.40;;;0.40;;
65636;SDS011;52327;42.622;23.316;2023-02-04T05:31:52;0.25;;;0.25;;
65636;SDS011;52327;42.622;23.316;2023-02-04T05:34:17;0.63;;;0.63;;
65636;SDS011;52327;42.622;23.316;2023-02-04T05:36:43;0.22;;;0.22;;
65636;SDS011;52327;42.622;23.316;2023-02-04T05:39:08;0.40;;;0.40;;
65636;SDS011;52327;42.622;23.316;2023-02-04T05:41:34;0.32;;;0.32;;
65636;SDS011;52327;42.622;23.316;2023-02-04T05:43:59;0.30;;;0.30;;
65636;SDS011;52327;42.622;23.316;2023-02-04T05:46:24;0.65;;;0.60;;
65636;SDS011;52327;42.622;23.316;2023-02-04T05:48:50;0.63;;;0.63;;
65636;SDS011;52327;42.622;23.316;2023-02-04T05:51:15;0.50;;;0.50;;
65636;SDS011;52327;42.622;23.316;2023-02-04T05:53:41;0.38;;;0.38;;
65636;SDS011;52327;42.622;23.316;2023-02-04T05:56:06;1.90;;;0.85;;
65636;SDS011;52327;42.622;23.316;2023-02-04T05:58:32;0.63;;;0.40;;
65636;SDS011;52327;42.622;23.316;2023-02-04T06:01:01;0.75;;;0.60;;
65636;SDS011;52327;42.622;23.316;2023-02-04T06:03:27;0.73;;;0.28;;
65636;SDS011;52327;42.622;23.316;2023-02-04T06:05:57;1.33;;;0.73;;
65636;SDS011;52327;42.622;23.316;2023-02-04T06:08:23;0.32;;;0.32;;
65636;SDS011;52327;42.622;23.316;2023-02-04T06:10:48;0.50;;;0.50;;
65636;SDS011;52327;42.622;23.316;2023-02-04T06:13:14;0.85;;;0.50;;
65636;SDS011;52327;42.622;23.316;2023-02-04T06:15:39;0.52;;;0.50;;
65636;SDS011;52327;42.622;23.316;2023-02-04T06:18:05;0.90;;;0.70;;
65636;SDS011;52327;42.622;23.316;2023-02-04T06:20:31;1.63;;;1.52;;
65636;SDS011;52327;42.622;23.316;2023-02-04T06:22:56;0.88;;;0.68;;
65636;SDS011;52327;42.622;23.316;2023-02-04T06:25:22;1.08;;;0.50;;
65636;SDS011;52327;42.622;23.316;2023-02-04T06:27:48;1.88;;;1.00;;
65636;SDS011;52327;42.622;23.316;2023-02-04T06:30:14;0.60;;;0.60;;
65636;SDS011;52327;42.622;23.316;2023-02-04T06:32:40;0.85;;;0.60;;
65636;SDS011;52327;42.622;23.316;2023-02-04T06:35:06;0.30;;;0.30;;
65636;SDS011;52327;42.622;23.316;2023-02-04T06:37:32;0.28;;;0.28;;
65636;SDS011;52327;42.622;23.316;2023-02-04T06:39:57;10.98;;;1.80;;
65636;SDS011;52327;42.622;23.316;2023-02-04T06:42:23;0.52;;;0.40;;
65636;SDS011;52327;42.622;23.316;2023-02-04T06:44:51;0.75;;;0.50;;
65636;SDS011;52327;42.622;23.316;2023-02-04T06:47:17;1.15;;;0.63;;
65636;SDS011;52327;42.622;23.316;2023-02-04T06:49:44;0.68;;;0.68;;
65636;SDS011;52327;42.622;23.316;2023-02-04T06:52:10;0.65;;;0.57;;
65636;SDS011;52327;42.622;23.316;2023-02-04T06:54:35;0.30;;;0.30;;
65636;SDS011;52327;42.622;23.316;2023-02-04T06:57:01;0.90;;;0.55;;
65636;SDS011;52327;42.622;23.316;2023-02-04T06:59:33;1.15;;;0.80;;
65636;SDS011;52327;42.622;23.316;2023-02-04T07:02:00;0.47;;;0.47;;
65636;SDS011;52327;42.622;23.316;2023-02-04T07:04:26;1.05;;;0.90;;
65636;SDS011;52327;42.622;23.316;2023-02-04T07:06:51;0.70;;;0.70;;
65636;SDS011;52327;42.622;23.316;2023-02-04T07:09:16;2.88;;;1.10;;
65636;SDS011;52327;42.622;23.316;2023-02-04T07:11:42;1.85;;;0.90;;
65636;SDS011;52327;42.622;23.316;2023-02-04T07:14:07;0.80;;;0.80;;
65636;SDS011;52327;42.622;23.316;2023-02-04T07:16:34;0.98;;;0.77;;
65636;SDS011;52327;42.622;23.316;2023-02-04T07:19:00;0.80;;;0.80;;
65636;SDS011;52327;42.622;23.316;2023-02-04T07:21:25;1.10;;;0.80;;
65636;SDS011;52327;42.622;23.316;2023-02-04T07:23:51;3.42;;;1.38;;
65636;SDS011;52327;42.622;23.316;2023-02-04T07:26:16;1.02;;;0.95;;
65636;SDS011;52327;42.622;23.316;2023-02-04T07:28:42;0.50;;;0.50;;
65636;SDS011;52327;42.622;23.316;2023-02-04T07:31:08;0.75;;;0.75;;
65636;SDS011;52327;42.622;23.316;2023-02-04T07:33:33;0.50;;;0.50;;
65636;SDS011;52327;42.622;23.316;2023-02-04T07:35:59;1.63;;;0.85;;
65636;SDS011;52327;42.622;23.316;2023-02-04T07:38:24;7.97;;;1.05;;
65636;SDS011;52327;42.622;23.316;2023-02-04T07:40:50;1.17;;;0.82;;
65636;SDS011;52327;42.622;23.316;2023-02-04T07:43:15;2.33;;;1.27;;
65636;SDS011;52327;42.622;23.316;2023-02-04T07:45:41;0.55;;;0.52;;
65636;SDS011;52327;42.622;23.316;2023-02-04T07:48:06;0.75;;;0.75;;
65636;SDS011;52327;42.622;23.316;2023-02-04T07:50:32;1.45;;;0.38;;
65636;SDS011;52327;42.622;23.316;2023-02-04T07:52:57;1.17;;;1.02;;
65636;SDS011;52327;42.622;23.316;2023-02-04T07:55:22;0.50;;;0.50;;
65636;SDS011;52327;42.622;23.316;2023-02-04T07:57:48;0.68;;;0.68;;
65636;SDS011;52327;42.622;23.316;2023-02-04T08:00:16;1.52;;;1.05;;
65636;SDS011;52327;42.622;23.316;2023-02-04T08:02:41;1.20;;;0.77;;
65636;SDS011;52327;42.622;23.316;2023-02-04T08:05:07;0.70;;;0.70;;
65636;SDS011;52327;42.622;23.316;2023-02-04T08:07:33;0.70;;;0.50;;
65636;SDS011;52327;42.622;23.316;2023-02-04T08:10:06;0.60;;;0.60;;
65636;SDS011;52327;42.622;23.316;2023-02-04T08:12:33;0.68;;;0.68;;
65636;SDS011;52327;42.622;23.316;2023-02-04T08:14:58;0.60;;;0.60;;
65636;SDS011;52327;42.622;23.316;2023-02-04T08:17:25;0.60;;;0.60;;
65636;SDS011;52327;42.622;23.316;2023-02-04T08:19:51;0.60;;;0.60;;
65636;SDS011;52327;42.622;23.316;2023-02-04T08:22:16;2.88;;;0.93;;
65636;SDS011;52327;42.622;23.316;2023-02-04T08:24:42;0.70;;;0.70;;
65636;SDS011;52327;42.622;23.316;2023-02-04T08:27:07;0.73;;;0.70;;
65636;SDS011;52327;42.622;23.316;2023-02-04T08:29:32;0.77;;;0.73;;
65636;SDS011;52327;42.622;23.316;2023-02-04T08:31:58;0.75;;;0.75;;
65636;SDS011;52327;42.622;23.316;2023-02-04T08:34:23;0.57;;;0.57;;
65636;SDS011;52327;42.622;23.316;2023-02-04T08:36:49;1.13;;;1.02;;
65636;SDS011;52327;42.622;23.316;2023-02-04T08:39:14;0.40;;;0.40;;
65636;SDS011;52327;42.622;23.316;2023-02-04T08:41:40;0.60;;;0.60;;
65636;SDS011;52327;42.622;23.316;2023-02-04T08:44:05;0.70;;;0.68;;
65636;SDS011;52327;42.622;23.316;2023-02-04T08:46:31;0.85;;;0.65;;
65636;SDS011;52327;42.622;23.316;2023-02-04T08:48:56;0.68;;;0.65;;
65636;SDS011;52327;42.622;23.316;2023-02-04T08:51:31;0.85;;;0.70;;
65636;SDS011;52327;42.622;23.316;2023-02-04T08:54:10;0.95;;;0.57;;
65636;SDS011;52327;42.622;23.316;2023-02-04T09:00:13;0.43;;;0.43;;
65636;SDS011;52327;42.622;23.316;2023-02-04T09:02:58;0.80;;;0.80;;
65636;SDS011;52327;42.622;23.316;2023-02-04T09:05:23;0.82;;;0.75;;
65636;SDS011;52327;42.622;23.316;2023-02-04T09:07:49;0.50;;;0.50;;
65636;SDS011;52327;42.622;23.316;2023-02-04T09:10:14;0.90;;;0.88;;
65636;SDS011;52327;42.622;23.316;2023-02-04T09:12:40;0.63;;;0.52;;
65636;SDS011;52327;42.622;23.316;2023-02-04T09:15:07;1.50;;;0.90;;
65636;SDS011;52327;42.622;23.316;2023-02-04T09:17:35;0.50;;;0.50;;
65636;SDS011;52327;42.622;23.316;2023-02-04T09:20:01;0.68;;;0.60;;
65636;SDS011;52327;42.622;23.316;2023-02-04T09:22:27;0.80;;;0.77;;
65636;SDS011;52327;42.622;23.316;2023-02-04T09:24:53;0.90;;;0.43;;
65636;SDS011;52327;42.622;23.316;2023-02-04T09:27:18;0.93;;;0.63;;
65636;SDS011;52327;42.622;23.316;2023-02-04T09:29:44;0.40;;;0.40;;
65636;SDS011;52327;42.622;23.316;2023-02-04T09:32:09;0.45;;;0.45;;
65636;SDS011;52327;42.622;23.316;2023-02-04T09:34:34;0.68;;;0.65;;
65636;SDS011;52327;42.622;23.316;2023-02-04T09:37:00;0.88;;;0.82;;
65636;SDS011;52327;42.622;23.316;2023-02-04T09:39:26;0.45;;;0.45;;
65636;SDS011;52327;42.622;23.316;2023-02-04T09:41:52;1.33;;;0.85;;
65636;SDS011;52327;42.622;23.316;2023-02-04T09:44:19;0.90;;;0.73;;
65636;SDS011;52327;42.622;23.316;2023-02-04T09:46:50;0.28;;;0.28;;
65636;SDS011;52327;42.622;23.316;2023-02-04T09:49:21;0.40;;;0.40;;
65636;SDS011;52327;42.622;23.316;2023-02-04T09:51:47;1.45;;;0.55;;
65636;SDS011;52327;42.622;23.316;2023-02-04T09:54:15;0.95;;;0.50;;
65636;SDS011;52327;42.622;23.316;2023-02-04T09:56:42;0.50;;;0.50;;
65636;SDS011;52327;42.622;23.316;2023-02-04T09:59:11;0.55;;;0.55;;
65636;SDS011;52327;42.622;23.316;2023-02-04T10:01:42;0.93;;;0.70;;
65636;SDS011;52327;42.622;23.316;2023-02-04T10:04:12;0.43;;;0.43;;
65636;SDS011;52327;42.622;23.316;2023-02-04T10:06:39;0.38;;;0.30;;
65636;SDS011;52327;42.622;23.316;2023-02-04T10:09:07;0.63;;;0.50;;
65636;SDS011;52327;42.622;23.316;2023-02-04T10:11:35;0.30;;;0.30;;
65636;SDS011;52327;42.622;23.316;2023-02-04T10:14:02;0.20;;;0.20;;
65636;SDS011;52327;42.622;23.316;2023-02-04T10:16:32;1.10;;;0.40;;
65636;SDS011;52327;42.622;23.316;2023-02-04T10:18:59;0.65;;;0.65;;
65636;SDS011;52327;42.622;23.316;2023-02-04T10:21:32;0.47;;;0.47;;
65636;SDS011;52327;42.622;23.316;2023-02-04T10:24:01;0.52;;;0.50;;
65636;SDS011;52327;42.622;23.316;2023-02-04T10:26:31;0.40;;;0.40;;
65636;SDS011;52327;42.622;23.316;2023-02-04T10:29:00;0.28;;;0.28;;
65636;SDS011;52327;42.622;23.316;2023-02-04T10:31:31;0.40;;;0.40;;
65636;SDS011;52327;42.622;23.316;2023-02-04T10:34:05;0.85;;;0.70;;
65636;SDS011;52327;42.622;23.316;2023-02-04T10:36:37;0.30;;;0.30;;
65636;SDS011;52327;42.622;23.316;2023-02-04T10:39:13;0.30;;;0.30;;
65636;SDS011;52327;42.622;23.316;2023-02-04T10:42:00;0.75;;;0.40;;
65636;SDS011;52327;42.622;23.316;2023-02-04T10:44:27;0.40;;;0.40;;
65636;SDS011;52327;42.622;23.316;2023-02-04T10:47:13;0.30;;;0.30;;
65636;SDS011;52327;42.622;23.316;2023-02-04T10:49:41;1.05;;;0.95;;
65636;SDS011;52327;42.622;23.316;2023-02-04T10:52:22;0.40;;;0.40;;
65636;SDS011;52327;42.622;23.316;2023-02-04T10:54:58;0.30;;;0.30;;
65636;SDS011;52327;42.622;23.316;2023-02-04T10:57:26;0.47;;;0.47;;
65636;SDS011;52327;42.622;23.316;2023-02-04T10:59:54;0.30;;;0.30;;
65636;SDS011;52327;42.622;23.316;2023-02-04T11:04:57;0.93;;;0.70;;
65636;SDS011;52327;42.622;23.316;2023-02-04T11:07:23;3.10;;;0.90;;
65636;SDS011;52327;42.622;23.316;2023-02-04T11:09:49;0.30;;;0.30;;
65636;SDS011;52327;42.622;23.316;2023-02-04T11:12:22;0.20;;;0.20;;
65636;SDS011;52327;42.622;23.316;2023-02-04T11:15:00;0.68;;;0.68;;
65636;SDS011;52327;42.622;23.316;2023-02-04T11:17:29;0.63;;;0.63;;
65636;SDS011;52327;42.622;23.316;2023-02-04T11:22:23;0.57;;;0.52;;
65636;SDS011;52327;42.622;23.316;2023-02-04T11:25:01;0.75;;;0.40;;
65636;SDS011;52327;42.622;23.316;2023-02-04T11:27:37;0.65;;;0.60;;
65636;SDS011;52327;42.622;23.316;2023-02-04T11:30:04;2.05;;;0.73;;
65636;SDS011;52327;42.622;23.316;2023-02-04T11:32:43;0.30;;;0.30;;
65636;SDS011;52327;42.622;23.316;2023-02-04T11:35:20;0.52;;;0.52;;
65636;SDS011;52327;42.622;23.316;2023-02-04T11:37:48;0.40;;;0.40;;
65636;SDS011;52327;42.622;23.316;2023-02-04T11:40:33;0.40;;;0.40;;
65636;SDS011;52327;42.622;23.316;2023-02-04T11:43:08;0.40;;;0.40;;
65636;SDS011;52327;42.622;23.316;2023-02-04T11:45:36;1.35;;;0.57;;
65636;SDS011;52327;42.622;23.316;2023-02-04T11:48:03;0.30;;;0.30;;
65636;SDS011;52327;42.622;23.316;2023-02-04T11:50:37;0.45;;;0.45;;
65636;SDS011;52327;42.622;23.316;2023-02-04T11:53:03;0.38;;;0.38;;
65636;SDS011;52327;42.622;23.316;2023-02-04T11:55:29;0.50;;;0.50;;
65636;SDS011;52327;42.622;23.316;2023-02-04T11:57:56;0.38;;;0.38;;
65636;SDS011;52327;42.622;23.316;2023-02-04T12:00:26;0.30;;;0.30;;
65636;SDS011;52327;42.622;23.316;2023-02-04T12:02:55;0.45;;;0.45;;
65636;SDS011;52327;42.622;23.316;2023-02-04T12:05:33;1.75;;;1.02;;
65636;SDS011;52327;42.622;23.316;2023-02-04T12:08:08;0.65;;;0.57;;
65636;SDS011;52327;42.622;23.316;2023-02-04T12:10:58;0.60;;;0.60;;
65636;SDS011;52327;42.622;23.316;2023-02-04T12:13:44;0.47;;;0.40;;
65636;SDS011;52327;42.622;23.316;2023-02-04T12:16:12;0.45;;;0.45;;
65636;SDS011;52327;42.622;23.316;2023-02-04T12:18:37;1.45;;;0.95;;
65636;SDS011;52327;42.622;23.316;2023-02-04T12:21:03;0.47;;;0.47;;
65636;SDS011;52327;42.622;23.316;2023-02-04T12:23:29;0.40;;;0.40;;
65636;SDS011;52327;42.622;23.316;2023-02-04T12:25:54;0.50;;;0.50;;
65636;SDS011;52327;42.622;23.316;2023-02-04T12:28:20;0.52;;;0.47;;
65636;SDS011;52327;42.622;23.316;2023-02-04T12:30:46;0.77;;;0.70;;
65636;SDS011;52327;42.622;23.316;2023-02-04T12:33:11;0.52;;;0.52;;
65636;SDS011;52327;42.622;23.316;2023-02-04T12:35:37;0.68;;;0.65;;
65636;SDS011;52327;42.622;23.316;2023-02-04T12:38:03;0.73;;;0.50;;
65636;SDS011;52327;42.622;23.316;2023-02-04T12:40:29;0.70;;;0.55;;
65636;SDS011;52327;42.622;23.316;2023-02-04T12:42:55;0.45;;;0.45;;
65636;SDS011;52327;42.622;23.316;2023-02-04T12:45:20;1.20;;;1.00;;
65636;SDS011;52327;42.622;23.316;2023-02-04T12:47:46;0.68;;;0.52;;
65636;SDS011;52327;42.622;23.316;2023-02-04T12:50:13;0.43;;;0.38;;
65636;SDS011;52327;42.622;23.316;2023-02-04T12:52:39;0.60;;;0.60;;
65636;SDS011;52327;42.622;23.316;2023-02-04T12:55:05;0.47;;;0.47;;
65636;SDS011;52327;42.622;23.316;2023-02-04T12:57:32;1.27;;;0.82;;
65636;SDS011;52327;42.622;23.316;2023-02-04T12:59:59;0.38;;;0.38;;
65636;SDS011;52327;42.622;23.316;2023-02-04T13:02:26;0.60;;;0.50;;
65636;SDS011;52327;42.622;23.316;2023-02-04T13:04:52;0.70;;;0.60;;
65636;SDS011;52327;42.622;23.316;2023-02-04T13:07:17;0.40;;;0.40;;
65636;SDS011;52327;42.622;23.316;2023-02-04T13:09:43;0.40;;;0.40;;
65636;SDS011;52327;42.622;23.316;2023-02-04T13:12:12;0.32;;;0.32;;
65636;SDS011;52327;42.622;23.316;2023-02-04T13:14:38;2.28;;;0.98;;
65636;SDS011;52327;42.622;23.316;2023-02-04T13:17:04;0.98;;;0.95;;
65636;SDS011;52327;42.622;23.316;2023-02-04T13:19:29;0.75;;;0.70;;
65636;SDS011;52327;42.622;23.316;2023-02-04T13:21:56;0.30;;;0.30;;
65636;SDS011;52327;42.622;23.316;2023-02-04T13:24:22;0.55;;;0.55;;
65636;SDS011;52327;42.622;23.316;2023-02-04T13:26:48;0.70;;;0.45;;
65636;SDS011;52327;42.622;23.316;2023-02-04T13:29:13;0.95;;;0.60;;
65636;SDS011;52327;42.622;23.316;2023-02-04T13:31:38;0.30;;;0.30;;
65636;SDS011;52327;42.622;23.316;2023-02-04T13:34:04;0.57;;;0.57;;
65636;SDS011;52327;42.622;23.316;2023-02-04T13:36:29;0.40;;;0.40;;
65636;SDS011;52327;42.622;23.316;2023-02-04T13:38:54;0.57;;;0.50;;
65636;SDS011;52327;42.622;23.316;2023-02-04T13:41:20;0.30;;;0.30;;
65636;SDS011;52327;42.622;23.316;2023-02-04T13:43:46;0.50;;;0.50;;
65636;SDS011;52327;42.622;23.316;2023-02-04T13:46:11;0.52;;;0.50;;
65636;SDS011;52327;42.622;23.316;2023-02-04T13:48:37;0.32;;;0.32;;
65636;SDS011;52327;42.622;23.316;2023-02-04T13:51:02;0.45;;;0.45;;
65636;SDS011;52327;42.622;23.316;2023-02-04T13:53:28;0.73;;;0.73;;
65636;SDS011;52327;42.622;23.316;2023-02-04T13:55:58;0.43;;;0.43;;
65636;SDS011;52327;42.622;23.316;2023-02-04T13:58:23;0.40;;;0.40;;
65636;SDS011;52327;42.622;23.316;2023-02-04T14:00:49;0.55;;;0.55;;
65636;SDS011;52327;42.622;23.316;2023-02-04T14:03:14;0.25;;;0.25;;
65636;SDS011;52327;42.622;23.316;2023-02-04T14:05:40;2.33;;;0.47;;
65636;SDS011;52327;42.622;23.316;2023-02-04T14:08:05;0.85;;;0.82;;
65636;SDS011;52327;42.622;23.316;2023-02-04T14:10:31;1.23;;;0.95;;
65636;SDS011;52327;42.622;23.316;2023-02-04T14:12:56;1.20;;;0.70;;
65636;SDS011;52327;42.622;23.316;2023-02-04T14:15:22;0.82;;;0.80;;
65636;SDS011;52327;42.622;23.316;2023-02-04T14:17:48;1.35;;;0.50;;
65636;SDS011;52327;42.622;23.316;2023-02-04T14:20:14;0.85;;;0.77;;
65636;SDS011;52327;42.622;23.316;2023-02-04T14:22:40;0.75;;;0.75;;
65636;SDS011;52327;42.622;23.316;2023-02-04T14:25:05;2.38;;;1.20;;
65636;SDS011;52327;42.622;23.316;2023-02-04T14:27:31;0.90;;;0.80;;
65636;SDS011;52327;42.622;23.316;2023-02-04T14:29:57;0.55;;;0.55;;
65636;SDS011;52327;42.622;23.316;2023-02-04T14:32:22;2.97;;;1.27;;
65636;SDS011;52327;42.622;23.316;2023-02-04T14:34:47;2.03;;;1.05;;
65636;SDS011;52327;42.622;23.316;2023-02-04T14:37:13;0.93;;;0.85;;
65636;SDS011;52327;42.622;23.316;2023-02-04T14:39:38;2.72;;;1.48;;
65636;SDS011;52327;42.622;23.316;2023-02-04T14:42:04;3.35;;;2.10;;
65636;SDS011;52327;42.622;23.316;2023-02-04T14:44:30;1.13;;;0.80;;
65636;SDS011;52327;42.622;23.316;2023-02-04T14:46:56;1.15;;;0.75;;